createdAt,value
2018-05-11T00:00:59.432Z,96903.16
2018-05-11T00:03:29.850Z,96900.82
2018-05-11T00:06:00.288Z,96893.55
2018-05-11T00:08:30.894Z,96886.48
2018-05-11T00:11:01.537Z,96884.75
2018-05-11T00:13:31.954Z,96887.41
2018-05-11T00:16:02.394Z,96889.30
2018-05-11T00:18:32.795Z,96882.75
2018-05-11T00:21:04.212Z,96885.73
2018-05-11T00:23:34.740Z,96878.67
2018-05-11T00:26:05.251Z,96885.73
2018-05-11T00:28:35.662Z,96881.42
2018-05-11T00:31:06.103Z,96877.02
2018-05-11T00:33:36.500Z,96885.00
2018-05-11T00:36:07.697Z,96879.27
2018-05-11T00:38:38.095Z,96878.36
2018-05-11T00:41:09.308Z,96882.95
2018-05-11T00:43:39.716Z,96882.03
2018-05-11T00:46:10.351Z,96887.51
2018-05-11T00:48:40.767Z,96881.68
2018-05-11T00:51:11.305Z,96886.17
2018-05-11T00:53:41.795Z,96888.94
2018-05-11T00:56:12.215Z,96887.77
2018-05-11T00:58:42.626Z,96888.52
2018-05-11T01:01:14.022Z,96892.51
2018-05-11T01:03:44.448Z,96887.19
2018-05-11T01:06:14.853Z,96889.34
2018-05-11T01:08:45.273Z,96890.27
2018-05-11T01:11:15.707Z,96895.33
2018-05-11T01:13:46.112Z,96891.41
2018-05-11T01:16:17.327Z,96887.42
2018-05-11T01:18:47.924Z,96890.02
2018-05-11T01:21:18.551Z,96891.34
2018-05-11T01:23:49.191Z,96885.92
2018-05-11T01:26:19.823Z,96890.08
2018-05-11T01:28:50.236Z,96882.45
2018-05-11T01:31:21.419Z,96883.02
2018-05-11T01:33:52.023Z,96879.44
2018-05-11T01:36:22.649Z,96882.03
2018-05-11T01:38:53.073Z,96874.22
2018-05-11T01:41:24.270Z,96880.55
2018-05-11T01:43:54.671Z,96882.80
2018-05-11T01:46:25.112Z,96883.71
2018-05-11T01:48:55.638Z,96882.38
2018-05-11T01:51:26.207Z,96884.95
2018-05-11T01:53:57.658Z,96883.20
2018-05-11T01:56:27.854Z,96885.92
2018-05-11T01:58:58.249Z,96890.27
2018-05-11T02:01:28.887Z,96885.36
2018-05-11T02:03:59.290Z,96891.49
2018-05-11T02:06:30.495Z,96895.99
2018-05-11T02:09:00.894Z,96886.59
2018-05-11T02:11:31.319Z,96889.19
2018-05-11T02:14:01.735Z,96882.53
2018-05-11T02:16:33.128Z,96887.76
2018-05-11T02:19:03.539Z,96886.42
2018-05-11T02:21:34.200Z,96884.69
2018-05-11T02:24:04.587Z,96888.73
2018-05-11T02:26:35.017Z,96884.84
2018-05-11T02:29:06.179Z,96886.59
2018-05-11T02:31:36.625Z,96888.42
2018-05-11T02:34:07.236Z,96883.20
2018-05-11T02:36:38.294Z,96886.08
2018-05-11T02:39:08.224Z,96881.78
2018-05-11T02:41:38.082Z,96881.20
2018-05-11T02:44:09.276Z,96888.73
2018-05-11T02:46:39.698Z,96893.33
2018-05-11T02:49:10.114Z,96891.84
2018-05-11T02:51:40.555Z,96888.11
2018-05-11T02:54:10.976Z,96889.66
2018-05-11T02:56:41.411Z,96893.23
2018-05-11T02:59:12.048Z,96885.77
2018-05-11T03:01:42.485Z,96883.20
2018-05-11T03:04:12.881Z,96884.95
2018-05-11T03:06:43.353Z,96880.45
2018-05-11T03:09:13.774Z,96879.94
2018-05-11T03:11:44.403Z,96880.86
2018-05-11T03:14:14.843Z,96876.72
2018-05-11T03:16:45.283Z,96884.59
2018-05-11T03:19:15.690Z,96888.17
2018-05-11T03:21:46.326Z,96896.66
2018-05-11T03:24:16.940Z,96896.15
2018-05-11T03:26:47.475Z,96900.23
2018-05-11T03:29:18.023Z,96897.41
2018-05-11T03:31:48.658Z,96908.12
2018-05-11T03:34:19.083Z,96911.69
2018-05-11T03:36:49.518Z,96904.29
2018-05-11T03:39:19.711Z,96910.02
2018-05-11T03:41:50.339Z,96908.88
2018-05-11T03:44:20.758Z,96911.12
2018-05-11T03:46:51.199Z,96910.52
2018-05-11T03:49:21.798Z,96913.59
2018-05-11T03:51:53.011Z,96913.28
2018-05-11T03:54:23.409Z,96906.31
2018-05-11T03:56:53.843Z,96905.59
2018-05-11T03:59:24.261Z,96898.02
2018-05-11T04:02:11.774Z,96896.19
2018-05-11T04:04:59.315Z,96890.21
2018-05-11T04:07:46.851Z,96900.75
2018-05-11T04:10:17.261Z,96902.93
2018-05-11T04:12:48.451Z,96910.20
2018-05-11T04:15:18.871Z,96904.67
2018-05-11T04:17:49.313Z,96908.56
2018-05-11T04:20:19.750Z,96905.30
2018-05-11T04:22:50.208Z,96899.98
2018-05-11T04:25:22.287Z,96903.88
2018-05-11T04:27:53.246Z,96901.31
2018-05-11T04:30:23.622Z,96903.88
2018-05-11T04:32:54.085Z,96908.63
2018-05-11T04:35:25.256Z,96908.21
2018-05-11T04:37:55.671Z,96909.38
2018-05-11T04:40:26.096Z,96910.30
2018-05-11T04:42:56.544Z,96905.70
2018-05-11T04:45:26.938Z,96909.19
2018-05-11T04:47:58.338Z,96917.10
2018-05-11T04:50:28.738Z,96918.49
2018-05-11T04:52:58.871Z,96912.20
2018-05-11T04:55:29.283Z,96909.80
2018-05-11T04:57:59.378Z,96914.30
2018-05-11T05:00:30.047Z,96905.81
2018-05-11T05:03:00.767Z,96908.28
2018-05-11T05:05:31.412Z,96904.98
2018-05-11T05:08:02.078Z,96896.40
2018-05-11T05:10:32.719Z,96906.95
2018-05-11T05:13:03.390Z,96901.00
2018-05-11T05:15:34.100Z,96900.75
2018-05-11T05:18:04.797Z,96899.92
2018-05-11T05:20:35.411Z,96893.79
2018-05-11T05:23:05.495Z,96898.28
2018-05-11T05:25:35.590Z,96893.94
2018-05-11T05:28:06.215Z,96896.35
2018-05-11T05:30:36.851Z,96892.45
2018-05-11T05:33:07.539Z,96896.70
2018-05-11T05:35:38.290Z,96898.53
2018-05-11T05:38:08.926Z,96898.66
2018-05-11T05:40:39.539Z,96894.16
2018-05-11T05:43:10.718Z,96891.84
2018-05-11T05:45:41.090Z,96894.41
2018-05-11T05:48:11.720Z,96898.34
2018-05-11T05:50:41.783Z,96895.67
2018-05-11T05:53:12.451Z,96900.08
2018-05-11T05:55:43.167Z,96896.40
2018-05-11T05:58:13.893Z,96892.92
2018-05-11T06:00:44.595Z,96897.00
2018-05-11T06:03:15.815Z,96893.91
2018-05-11T06:05:45.881Z,96902.03
2018-05-11T06:08:17.300Z,96903.52
2018-05-11T06:10:48.515Z,96895.38
2018-05-11T06:13:19.672Z,96893.86
2018-05-11T06:15:50.403Z,96896.33
2018-05-11T06:18:21.046Z,96898.58
2018-05-11T06:20:51.644Z,96894.48
2018-05-11T06:23:22.222Z,96898.22
2018-05-11T06:25:52.298Z,96899.70
2018-05-11T06:28:23.020Z,96899.70
2018-05-11T06:30:52.838Z,96898.84
2018-05-11T06:33:24.244Z,96898.78
2018-05-11T06:35:54.322Z,96898.69
2018-05-11T06:38:24.942Z,96899.19
2018-05-11T06:40:55.007Z,96901.25
2018-05-11T06:43:25.446Z,96899.82
2018-05-11T06:45:56.300Z,96898.44
2018-05-11T06:48:27.115Z,96900.91
2018-05-11T06:50:58.548Z,96907.05
2018-05-11T06:53:29.204Z,96906.39
2018-05-11T06:55:59.912Z,96898.58
2018-05-11T06:58:30.635Z,96890.84
2018-05-11T07:01:02.113Z,96887.73
2018-05-11T07:03:33.579Z,96878.64
2018-05-11T07:06:05.955Z,96882.59
2018-05-11T07:08:36.078Z,96875.43
2018-05-11T07:11:06.395Z,96871.34
2018-05-11T07:13:36.495Z,96868.94
2018-05-11T07:16:07.700Z,96861.37
2018-05-11T07:18:38.429Z,96861.01
2018-05-11T07:21:08.911Z,96858.66
2018-05-11T07:23:39.643Z,96854.06
2018-05-11T07:26:11.107Z,96853.90
2018-05-11T07:28:41.837Z,96859.66
2018-05-11T07:31:13.274Z,96862.30
2018-05-11T07:33:43.932Z,96860.98
2018-05-11T07:36:14.555Z,96862.47
2018-05-11T07:38:45.217Z,96864.77
2018-05-11T07:41:15.885Z,96870.81
2018-05-11T07:43:47.524Z,96864.72
2018-05-11T07:46:19.155Z,96857.26
2018-05-11T07:48:49.813Z,96859.56
2018-05-11T07:51:21.220Z,96859.80
2018-05-11T07:53:51.675Z,96854.89
2018-05-11T07:56:23.102Z,96859.75
2018-05-11T07:58:54.417Z,96861.91
2018-05-11T08:01:25.054Z,96859.14
2018-05-11T08:03:55.612Z,96849.83
2018-05-11T08:06:26.111Z,96852.80
2018-05-11T08:08:56.787Z,96850.59
2018-05-11T08:11:27.610Z,96858.16
2018-05-11T08:13:58.047Z,96854.30
2018-05-11T08:16:28.668Z,96854.11
2018-05-11T08:18:58.784Z,96857.38
2018-05-11T08:21:29.423Z,96850.67
2018-05-11T08:24:00.281Z,96848.97
2018-05-11T08:26:30.691Z,96851.19
2018-05-11T08:29:01.567Z,96848.36
2018-05-11T08:31:32.407Z,96848.58
2018-05-11T08:34:02.499Z,96851.23
2018-05-11T08:36:32.906Z,96850.56
2018-05-11T08:39:03.119Z,96852.71
2018-05-11T08:41:33.191Z,96855.52
2018-05-11T08:44:03.624Z,96846.72
2018-05-11T08:46:34.031Z,96839.39
2018-05-11T08:49:04.139Z,96834.47
2018-05-11T08:51:34.542Z,96845.73
2018-05-11T08:54:04.642Z,96830.00
2018-05-11T08:56:35.325Z,96836.46
2018-05-11T08:59:05.959Z,96834.56
2018-05-11T09:01:36.357Z,96833.38
2018-05-11T09:04:06.454Z,96843.55
2018-05-11T09:06:36.862Z,96831.33
2018-05-11T09:09:06.233Z,96833.10
2018-05-11T09:11:37.679Z,96830.37
2018-05-11T09:14:08.923Z,96829.56
2018-05-11T09:16:38.993Z,96822.25
2018-05-11T09:19:09.482Z,96828.80
2018-05-11T09:21:40.393Z,96822.25
2018-05-11T09:24:10.812Z,96825.18
2018-05-11T09:26:40.882Z,96826.30
2018-05-11T09:29:11.339Z,96822.80
2018-05-11T09:31:41.995Z,96820.38
2018-05-11T09:34:13.068Z,96822.16
2018-05-11T09:36:43.478Z,96819.08
2018-05-11T09:39:13.659Z,96822.33
2018-05-11T09:41:44.066Z,96818.50
2018-05-11T09:44:14.966Z,96816.28
2018-05-11T09:46:45.022Z,96816.56
2018-05-11T09:49:15.455Z,96814.00
2018-05-11T09:51:46.287Z,96813.28
2018-05-11T09:54:16.370Z,96813.80
2018-05-11T09:56:47.068Z,96811.64
2018-05-11T10:02:01.985Z,96818.31
2018-05-11T10:04:40.034Z,96808.03
2018-05-11T10:07:10.870Z,96806.12
2018-05-11T10:09:41.510Z,96801.64
2018-05-11T10:12:12.343Z,96801.53
2018-05-11T10:14:42.776Z,96798.67
2018-05-11T10:17:13.606Z,96799.05
2018-05-11T10:19:43.723Z,96798.53
2018-05-11T10:22:14.453Z,96786.88
2018-05-11T10:24:44.903Z,96788.80
2018-05-11T10:27:15.744Z,96791.56
2018-05-11T10:29:45.848Z,96793.58
2018-05-11T10:32:16.459Z,96791.87
2018-05-11T10:34:46.568Z,96796.23
2018-05-11T10:37:16.630Z,96795.66
2018-05-11T10:39:47.523Z,96794.61
2018-05-11T10:42:17.783Z,96793.78
2018-05-11T10:44:49.271Z,96793.09
2018-05-11T10:47:19.347Z,96795.45
2018-05-11T10:49:50.299Z,96787.36
2018-05-11T10:52:20.390Z,96787.67
2018-05-11T10:54:50.495Z,96781.28
2018-05-11T10:57:20.663Z,96783.23
2018-05-11T10:59:50.763Z,96789.58
2018-05-11T11:02:21.680Z,96787.50
2018-05-11T11:04:52.496Z,96783.70
2018-05-11T11:07:22.563Z,96777.87
2018-05-11T11:09:52.652Z,96770.80
2018-05-11T11:12:22.718Z,96770.18
2018-05-11T11:14:53.583Z,96773.33
2018-05-11T11:17:23.759Z,96769.77
2018-05-11T11:19:53.860Z,96755.80
2018-05-11T11:22:24.679Z,96747.53
2018-05-11T11:24:54.799Z,96751.22
2018-05-11T11:27:25.407Z,96751.43
2018-05-11T11:29:56.234Z,96742.62
2018-05-11T11:32:26.299Z,96744.36
2018-05-11T11:34:56.394Z,96737.31
2018-05-11T11:37:26.810Z,96735.30
2018-05-11T11:39:57.681Z,96728.20
2018-05-11T11:42:28.099Z,96735.88
2018-05-11T11:44:58.192Z,96728.76
2018-05-11T11:47:28.675Z,96727.66
2018-05-11T11:49:58.890Z,96722.18
2018-05-11T11:52:29.299Z,96724.02
2018-05-11T11:55:00.150Z,96725.61
2018-05-11T11:57:30.763Z,96721.30
2018-05-11T12:00:01.599Z,96709.64
2018-05-11T12:02:31.687Z,96720.61
2018-05-11T12:05:02.883Z,96719.02
2018-05-11T12:07:32.955Z,96712.02
2018-05-11T12:10:04.095Z,96706.77
2018-05-11T12:12:35.646Z,96707.52
2018-05-11T12:15:07.171Z,96703.03
2018-05-11T12:20:12.522Z,96704.36
2018-05-11T12:22:43.103Z,96696.20
2018-05-11T12:25:13.212Z,96694.97
2018-05-11T12:27:43.823Z,96702.69
2018-05-11T12:30:13.938Z,96694.79
2018-05-11T12:32:44.086Z,96695.84
2018-05-11T12:35:14.539Z,96691.00
2018-05-11T12:37:44.687Z,96685.44
2018-05-11T12:40:15.133Z,96685.85
2018-05-11T12:42:45.811Z,96690.03
2018-05-11T12:45:15.994Z,96694.20
2018-05-11T12:47:46.606Z,96689.70
2018-05-11T12:50:17.247Z,96684.29
2018-05-11T12:52:47.703Z,96678.78
2018-05-11T12:55:17.936Z,96680.03
2018-05-11T12:57:48.343Z,96673.39
2018-05-11T13:00:18.995Z,96665.48
2018-05-11T13:02:49.067Z,96661.38
2018-05-11T13:05:19.939Z,96667.72
2018-05-11T13:07:50.022Z,96653.46
2018-05-11T13:10:20.442Z,96656.88
2018-05-11T13:12:50.534Z,96652.56
2018-05-11T13:15:20.798Z,96649.30
2018-05-11T13:17:51.392Z,96645.80
2018-05-11T13:20:21.567Z,96641.73
2018-05-11T13:22:52.098Z,96641.41
2018-05-11T13:25:22.738Z,96641.41
2018-05-11T13:27:52.810Z,96635.63
2018-05-11T13:30:23.442Z,96631.23
2018-05-11T13:32:54.248Z,96628.62
2018-05-11T13:35:24.877Z,96629.56
2018-05-11T13:37:54.954Z,96629.84
2018-05-11T13:40:25.145Z,96624.91
2018-05-11T13:42:55.544Z,96625.73
2018-05-11T13:45:25.627Z,96626.69
2018-05-11T13:47:55.726Z,96620.14
2018-05-11T13:50:26.924Z,96626.49
2018-05-11T13:52:56.990Z,96626.31
2018-05-11T13:55:28.388Z,96617.80
2018-05-11T13:57:58.974Z,96620.64
2018-05-11T14:00:29.064Z,96618.30
2018-05-11T14:02:59.146Z,96614.17
2018-05-11T14:05:29.570Z,96612.14
2018-05-11T14:08:00.215Z,96613.67
2018-05-11T14:10:31.577Z,96611.91
2018-05-11T14:13:02.154Z,96609.05
2018-05-11T14:15:32.238Z,96621.03
2018-05-11T14:18:02.654Z,96622.23
2018-05-11T14:20:32.747Z,96622.95
2018-05-11T14:23:03.666Z,96613.50
2018-05-11T14:25:34.256Z,96614.23
2018-05-11T14:28:04.663Z,96616.14
2018-05-11T14:30:35.519Z,96611.95
2018-05-11T14:33:06.124Z,96607.83
2018-05-11T14:35:37.486Z,96616.34
2018-05-11T14:38:08.126Z,96614.80
2018-05-11T14:40:38.234Z,96611.63
2018-05-11T14:43:08.931Z,96603.73
2018-05-11T14:45:40.343Z,96609.39
2018-05-11T14:48:10.927Z,96603.33
2018-05-11T14:50:42.324Z,96604.67
2018-05-11T14:53:12.416Z,96604.90
2018-05-11T14:55:43.289Z,96604.05
2018-05-11T14:58:13.983Z,96604.39
2018-05-11T15:00:44.079Z,96601.20
2018-05-11T15:03:14.167Z,96603.05
2018-05-11T15:05:44.608Z,96595.98
2018-05-11T15:08:15.163Z,96599.16
2018-05-11T15:10:45.272Z,96589.49
2018-05-11T15:13:15.903Z,96595.03
2018-05-11T15:15:47.116Z,96591.86
2018-05-11T15:18:18.451Z,96590.41
2018-05-11T15:20:49.045Z,96585.09
2018-05-11T15:23:19.615Z,96583.12
2018-05-11T15:25:50.484Z,96582.72
2018-05-11T15:28:20.559Z,96583.62
2018-05-11T15:30:50.696Z,96583.72
2018-05-11T15:33:21.128Z,96571.20
2018-05-11T15:35:51.980Z,96574.16
2018-05-11T15:38:22.070Z,96567.72
2018-05-11T15:40:52.521Z,96562.80
2018-05-11T15:43:23.144Z,96559.20
2018-05-11T15:45:54.007Z,96560.34
2018-05-11T15:48:24.414Z,96564.92
2018-05-11T15:50:54.874Z,96558.98
2018-05-11T15:53:25.499Z,96563.13
2018-05-11T15:55:55.593Z,96563.64
2018-05-11T15:58:26.000Z,96556.16
2018-05-11T16:00:57.403Z,96558.11
2018-05-11T16:03:27.487Z,96554.63
2018-05-11T16:05:57.387Z,96556.48
2018-05-11T16:08:28.042Z,96557.47
2018-05-11T16:10:58.672Z,96554.63
2018-05-11T16:13:29.283Z,96554.22
2018-05-11T16:15:59.873Z,96551.56
2018-05-11T16:18:30.490Z,96550.74
2018-05-11T16:21:01.082Z,96551.22
2018-05-11T16:23:31.155Z,96550.00
2018-05-11T16:26:01.246Z,96552.35
2018-05-11T16:28:31.335Z,96549.49
2018-05-11T16:31:01.755Z,96546.83
2018-05-11T16:33:32.384Z,96551.64
2018-05-11T16:36:03.017Z,96549.16
2018-05-11T16:38:33.675Z,96551.41
2018-05-11T16:41:04.117Z,96554.08
2018-05-11T16:43:34.698Z,96556.84
2018-05-11T16:46:05.059Z,96553.47
2018-05-11T16:48:35.135Z,96550.39
2018-05-11T16:51:05.198Z,96549.13
2018-05-11T16:53:36.271Z,96554.16
2018-05-11T16:56:06.391Z,96555.59
2018-05-11T16:58:37.247Z,96555.70
2018-05-11T17:01:07.905Z,96557.55
2018-05-11T17:03:38.354Z,96555.98
2018-05-11T17:06:08.962Z,96555.78
2018-05-11T17:08:39.028Z,96555.78
2018-05-11T17:11:09.890Z,96553.22
2018-05-11T17:13:40.597Z,96555.95
2018-05-11T17:16:11.234Z,96556.06
2018-05-11T17:18:42.390Z,96561.59
2018-05-11T17:21:12.823Z,96555.45
2018-05-11T17:23:43.646Z,96558.70
2018-05-11T17:26:13.741Z,96555.63
2018-05-11T17:28:43.867Z,96561.88
2018-05-11T17:31:13.960Z,96565.97
2018-05-11T17:33:44.647Z,96557.68
2018-05-11T17:36:15.536Z,96558.60
2018-05-11T17:38:46.247Z,96566.25
2018-05-11T17:41:16.375Z,96564.62
2018-05-11T17:43:46.767Z,96566.56
2018-05-11T17:46:16.892Z,96560.02
2018-05-11T17:48:48.343Z,96565.00
2018-05-11T17:51:19.214Z,96563.47
2018-05-11T17:53:49.082Z,96563.06
2018-05-11T17:56:19.608Z,96562.34
2018-05-11T17:58:49.678Z,96567.26
2018-05-11T18:01:20.292Z,96573.58
2018-05-11T18:03:51.119Z,96573.27
2018-05-11T18:06:22.291Z,96574.70
2018-05-11T18:08:52.907Z,96577.98
2018-05-11T18:11:24.304Z,96578.57
2018-05-11T18:13:54.856Z,96573.25
2018-05-11T18:16:25.524Z,96568.95
2018-05-11T18:18:56.041Z,96564.13
2018-05-11T18:21:26.823Z,96564.75
2018-05-11T18:23:57.425Z,96565.23
2018-05-11T18:26:28.300Z,96566.66
2018-05-11T18:28:58.383Z,96562.77
2018-05-11T18:31:28.881Z,96565.54
2018-05-11T18:33:58.976Z,96561.65
2018-05-11T18:36:29.101Z,96561.72
2018-05-11T18:38:59.544Z,96560.09
2018-05-11T18:41:30.116Z,96558.34
2018-05-11T18:44:00.227Z,96562.03
2018-05-11T18:46:30.091Z,96566.64
2018-05-11T18:49:00.500Z,96567.56
2018-05-11T18:51:32.070Z,96570.81
2018-05-11T18:54:03.716Z,96572.14
2018-05-11T18:56:34.966Z,96572.25
2018-05-11T18:59:05.387Z,96579.82
2018-05-11T19:01:36.784Z,96577.77
2018-05-11T19:04:07.521Z,96573.86
2018-05-11T19:06:38.149Z,96575.19
2018-05-11T19:09:09.340Z,96582.86
2018-05-11T19:11:40.200Z,96588.19
2018-05-11T19:14:10.330Z,96585.22
2018-05-11T19:16:41.050Z,96591.88
2018-05-11T19:19:12.383Z,96601.80
2018-05-11T19:21:43.260Z,96595.56
2018-05-11T19:24:13.371Z,96600.55
2018-05-11T19:26:44.138Z,96606.28
2018-05-11T19:29:14.739Z,96602.39
2018-05-11T19:31:45.188Z,96603.82
2018-05-11T19:34:15.321Z,96611.30
2018-05-11T19:36:45.754Z,96622.87
2018-05-11T19:39:15.819Z,96621.64
2018-05-11T19:41:46.692Z,96619.48
2018-05-11T19:44:16.801Z,96623.06
2018-05-11T19:46:46.912Z,96621.33
2018-05-11T19:49:17.995Z,96626.66
2018-05-11T19:51:49.631Z,96630.23
2018-05-11T19:54:20.310Z,96631.63
2018-05-11T19:56:50.955Z,96632.89
2018-05-11T19:59:21.808Z,96629.42
2018-05-11T20:01:52.230Z,96630.30
2018-05-11T20:04:23.108Z,96629.90
2018-05-11T20:06:53.227Z,96632.56
2018-05-11T20:09:23.382Z,96633.48
2018-05-11T20:11:54.018Z,96627.34
2018-05-11T20:14:25.183Z,96624.78
2018-05-11T20:16:56.571Z,96629.69
2018-05-11T20:19:26.633Z,96625.29
2018-05-11T20:21:57.055Z,96621.30
2018-05-11T20:24:27.123Z,96613.41
2018-05-11T20:26:57.567Z,96619.31
2018-05-11T20:29:28.172Z,96618.39
2018-05-11T20:31:59.042Z,96621.16
2018-05-11T20:34:29.451Z,96623.82
2018-05-11T20:37:00.307Z,96625.66
2018-05-11T20:39:30.899Z,96634.16
2018-05-11T20:42:00.995Z,96626.66
2018-05-11T20:44:31.904Z,96631.16
2018-05-11T20:47:02.831Z,96628.59
2018-05-11T20:49:33.254Z,96626.25
2018-05-11T20:52:04.114Z,96634.84
2018-05-11T20:54:34.172Z,96636.08
2018-05-11T20:57:05.370Z,96632.66
2018-05-11T20:59:35.978Z,96637.50
2018-05-11T21:02:06.851Z,96636.24
2018-05-11T21:04:37.254Z,96637.98
2018-05-11T21:07:07.367Z,96633.58
2018-05-11T21:09:37.852Z,96631.95
2018-05-11T21:12:07.945Z,96635.94
2018-05-11T21:14:38.466Z,96634.20
2018-05-11T21:17:09.424Z,96642.18
2018-05-11T21:19:39.835Z,96641.77
2018-05-11T21:22:09.923Z,96636.03
2018-05-11T21:24:40.323Z,96639.63
2018-05-11T21:27:10.452Z,96631.63
2018-05-11T21:29:40.694Z,96634.40
2018-05-11T21:32:10.786Z,96639.31
2018-05-11T21:34:41.474Z,96630.00
2018-05-11T21:37:11.581Z,96634.06
2018-05-11T21:39:41.982Z,96631.91
2018-05-11T21:42:12.074Z,96627.92
2018-05-11T21:44:42.482Z,96630.98
2018-05-11T21:47:12.574Z,96631.09
2018-05-11T21:49:42.987Z,96628.02
2018-05-11T21:52:13.070Z,96626.79
2018-05-11T21:54:43.477Z,96632.93
2018-05-11T21:57:13.586Z,96636.52
2018-05-11T21:59:45.250Z,96633.44
2018-05-11T22:02:16.103Z,96633.55
2018-05-11T22:04:46.811Z,96630.47
2018-05-11T22:07:17.671Z,96637.13
2018-05-11T22:09:48.383Z,96633.61
2018-05-11T22:12:18.866Z,96634.53
2018-05-11T22:14:48.930Z,96632.28
2018-05-11T22:17:19.049Z,96632.80
2018-05-11T22:19:50.432Z,96635.45
2018-05-11T22:22:20.534Z,96625.32
2018-05-11T22:24:51.231Z,96625.42
2018-05-11T22:27:22.755Z,96619.38
2018-05-11T22:29:52.838Z,96628.19
2018-05-11T22:32:23.611Z,96625.12
2018-05-11T22:34:54.040Z,96626.55
2018-05-11T22:37:24.155Z,96629.52
2018-05-11T22:39:54.561Z,96631.87
2018-05-11T22:42:24.655Z,96629.20
2018-05-11T22:44:55.059Z,96626.95
2018-05-11T22:47:25.146Z,96624.37
2018-05-11T22:49:55.554Z,96626.61
2018-05-11T22:52:26.407Z,96625.28
2018-05-11T22:54:56.830Z,96630.20
2018-05-11T22:57:27.283Z,96624.05
2018-05-11T22:59:57.116Z,96626.72
2018-05-11T23:02:27.751Z,96627.13
2018-05-11T23:04:57.811Z,96620.58
2018-05-11T23:07:28.226Z,96622.42
2018-05-11T23:09:58.389Z,96619.76
2018-05-11T23:12:28.927Z,96617.61
2018-05-11T23:14:58.994Z,96621.50
2018-05-11T23:17:29.430Z,96616.17
2018-05-11T23:19:59.511Z,96620.58
2018-05-11T23:22:29.228Z,96616.59
2018-05-11T23:24:59.498Z,96613.20
2018-05-11T23:27:30.361Z,96613.62
2018-05-11T23:30:00.781Z,96613.20
2018-05-11T23:32:31.630Z,96615.87
2018-05-11T23:35:01.998Z,96614.64
2018-05-11T23:37:32.167Z,96612.89
2018-05-11T23:40:02.550Z,96614.23
2018-05-11T23:42:32.392Z,96609.38
2018-05-11T23:45:02.817Z,96608.47
2018-05-11T23:47:33.669Z,96608.47
2018-05-11T23:50:04.380Z,96608.16
2018-05-11T23:52:34.468Z,96610.82
2018-05-11T23:55:04.874Z,96602.42
2018-05-11T23:57:35.166Z,96601.61
